To NAV CANADA Home Page Login to a new session Search on AWWS site Feedback and Comments Disclaimer Vers la page française équivalente Tips FAQ What's new on the site To the Forecasts and Observations / NOTAM section To "File a Flight Plan" website Publications and other links Update of the User's profile FIC Telephone Numbers My Weather Data Folder Route Weather Data Regional Weather Data Local Weather Data To the Forecasts and Observations / NOTAM section
Request Generated 07/29/2015 at 13:28:20 UTC . Weather information available at that time is displayed.

METAR/TAF

MAYO/YT    

METAR CYMA 291300Z 00000KT 20SM SCT005 OVC045 12/11 A2985 RMK ST3SC5
VIS 1/2 MI W DUE TO LOW CLD SLP123 DENSITY ALT 1700FT=
SPECI CYMA 291235Z 00000KT 5SM BR FEW005 BKN050 11/11 A2985 RMK
ST1SC6 VIS 1/4 MI W SLP121=
METAR CYMA 291200Z 00000KT 1/2SM FG OVC050 11/11 A2984 RMK FG7SC1
CLIMAT 13.2/11.2/1.8MM SLP119 DENSITY ALT 1700FT=
SPECI CYMA 291149Z 00000KT 1/2SM FG OVC050 11/11 A2984 RMK FG5SC3
SLP120=
SPECI CYMA 291120Z 16002KT 5SM BR OVC050 11/11 A2984 RMK SC8 SLP117
DENSITY ALT 1700FT=
METAR CYMA 291100Z 00000KT 20SM -RA OVC045 12/11 A2983 RMK SC8 SLP115
DENSITY ALT 1700FT=

TAF AMD CYMA 291310Z 2913/2924 VRB03KT P6SM SCT005 OVC040 TEMPO
2913/2915 1/2SM FG OVC005
FM291600 VRB03KT P6SM -RA SCT020 OVC050 TEMPO 2916/2924 3SM -RA
BR SCT006 OVC020
RMK NXT FCST BY 291800Z=
Your time UTC time
Weather data provided by Environment Canada and NAV CANADA